sensor_id;sensor_type;location;lat;lon;timestamp;P1;durP1;ratioP1;P2;durP2;ratioP2
58354;SDS011;44160;49.080;19.302;2023-05-07T00:00:49;6.65;;;4.15;;
58354;SDS011;44160;49.080;19.302;2023-05-07T00:03:16;7.22;;;4.50;;
58354;SDS011;44160;49.080;19.302;2023-05-07T00:05:42;4.70;;;3.80;;
58354;SDS011;44160;49.080;19.302;2023-05-07T00:08:08;5.18;;;3.78;;
58354;SDS011;44160;49.080;19.302;2023-05-07T00:10:34;4.03;;;3.33;;
58354;SDS011;44160;49.080;19.302;2023-05-07T00:13:00;6.90;;;3.22;;
58354;SDS011;44160;49.080;19.302;2023-05-07T00:15:26;3.78;;;2.70;;
58354;SDS011;44160;49.080;19.302;2023-05-07T00:17:53;5.35;;;2.88;;
58354;SDS011;44160;49.080;19.302;2023-05-07T00:20:19;3.40;;;2.70;;
58354;SDS011;44160;49.080;19.302;2023-05-07T00:22:45;3.47;;;2.45;;
58354;SDS011;44160;49.080;19.302;2023-05-07T00:25:11;3.50;;;2.50;;
58354;SDS011;44160;49.080;19.302;2023-05-07T00:27:37;3.63;;;2.60;;
58354;SDS011;44160;49.080;19.302;2023-05-07T00:30:03;4.45;;;3.40;;
58354;SDS011;44160;49.080;19.302;2023-05-07T00:32:29;9.95;;;3.95;;
58354;SDS011;44160;49.080;19.302;2023-05-07T00:34:55;7.70;;;3.47;;
58354;SDS011;44160;49.080;19.302;2023-05-07T00:37:21;6.82;;;3.33;;
58354;SDS011;44160;49.080;19.302;2023-05-07T00:39:47;5.65;;;3.80;;
58354;SDS011;44160;49.080;19.302;2023-05-07T00:42:14;5.95;;;3.67;;
58354;SDS011;44160;49.080;19.302;2023-05-07T00:44:41;6.53;;;3.33;;
58354;SDS011;44160;49.080;19.302;2023-05-07T00:47:07;5.30;;;3.70;;
58354;SDS011;44160;49.080;19.302;2023-05-07T00:49:41;6.57;;;3.75;;
58354;SDS011;44160;49.080;19.302;2023-05-07T00:52:07;4.80;;;3.15;;
58354;SDS011;44160;49.080;19.302;2023-05-07T00:54:35;4.60;;;3.28;;
58354;SDS011;44160;49.080;19.302;2023-05-07T00:57:02;3.92;;;3.10;;
58354;SDS011;44160;49.080;19.302;2023-05-07T00:59:29;5.13;;;3.33;;
58354;SDS011;44160;49.080;19.302;2023-05-07T01:01:56;5.05;;;3.13;;
58354;SDS011;44160;49.080;19.302;2023-05-07T01:04:22;6.70;;;3.20;;
58354;SDS011;44160;49.080;19.302;2023-05-07T01:06:48;3.38;;;2.85;;
58354;SDS011;44160;49.080;19.302;2023-05-07T01:09:14;4.65;;;3.35;;
58354;SDS011;44160;49.080;19.302;2023-05-07T01:11:40;4.20;;;3.30;;
58354;SDS011;44160;49.080;19.302;2023-05-07T01:14:08;3.42;;;2.90;;
58354;SDS011;44160;49.080;19.302;2023-05-07T01:16:34;5.07;;;3.35;;
58354;SDS011;44160;49.080;19.302;2023-05-07T01:19:00;3.47;;;2.72;;
58354;SDS011;44160;49.080;19.302;2023-05-07T01:21:26;3.60;;;2.92;;
58354;SDS011;44160;49.080;19.302;2023-05-07T01:23:55;4.47;;;3.08;;
58354;SDS011;44160;49.080;19.302;2023-05-07T01:26:22;4.43;;;3.30;;
58354;SDS011;44160;49.080;19.302;2023-05-07T01:28:48;8.07;;;3.55;;
58354;SDS011;44160;49.080;19.302;2023-05-07T01:31:15;4.28;;;2.90;;
58354;SDS011;44160;49.080;19.302;2023-05-07T01:33:42;6.00;;;3.83;;
58354;SDS011;44160;49.080;19.302;2023-05-07T01:36:10;7.43;;;3.10;;
58354;SDS011;44160;49.080;19.302;2023-05-07T01:38:37;4.97;;;3.33;;
58354;SDS011;44160;49.080;19.302;2023-05-07T01:41:03;5.38;;;3.45;;
58354;SDS011;44160;49.080;19.302;2023-05-07T01:43:30;9.05;;;3.88;;
58354;SDS011;44160;49.080;19.302;2023-05-07T01:45:57;4.15;;;3.10;;
58354;SDS011;44160;49.080;19.302;2023-05-07T01:48:24;5.43;;;3.70;;
58354;SDS011;44160;49.080;19.302;2023-05-07T01:50:51;11.15;;;3.72;;
58354;SDS011;44160;49.080;19.302;2023-05-07T01:53:18;5.70;;;3.65;;
58354;SDS011;44160;49.080;19.302;2023-05-07T01:55:44;4.78;;;3.40;;
58354;SDS011;44160;49.080;19.302;2023-05-07T01:58:10;3.83;;;3.13;;
58354;SDS011;44160;49.080;19.302;2023-05-07T02:00:36;4.70;;;3.22;;
58354;SDS011;44160;49.080;19.302;2023-05-07T02:03:02;3.83;;;3.20;;
58354;SDS011;44160;49.080;19.302;2023-05-07T02:05:28;4.43;;;3.33;;
58354;SDS011;44160;49.080;19.302;2023-05-07T02:07:54;3.58;;;2.83;;
58354;SDS011;44160;49.080;19.302;2023-05-07T02:10:20;4.18;;;3.28;;
58354;SDS011;44160;49.080;19.302;2023-05-07T02:12:46;4.38;;;3.53;;
58354;SDS011;44160;49.080;19.302;2023-05-07T02:15:12;3.78;;;3.05;;
58354;SDS011;44160;49.080;19.302;2023-05-07T02:17:39;5.10;;;3.40;;
58354;SDS011;44160;49.080;19.302;2023-05-07T02:20:24;6.72;;;4.10;;
58354;SDS011;44160;49.080;19.302;2023-05-07T02:22:50;4.95;;;4.10;;
58354;SDS011;44160;49.080;19.302;2023-05-07T02:25:16;5.07;;;3.38;;
58354;SDS011;44160;49.080;19.302;2023-05-07T02:27:42;6.15;;;3.90;;
58354;SDS011;44160;49.080;19.302;2023-05-07T02:30:08;5.13;;;3.70;;
58354;SDS011;44160;49.080;19.302;2023-05-07T02:32:34;6.97;;;3.90;;
58354;SDS011;44160;49.080;19.302;2023-05-07T02:35:00;5.15;;;3.92;;
58354;SDS011;44160;49.080;19.302;2023-05-07T02:37:26;4.55;;;3.75;;
58354;SDS011;44160;49.080;19.302;2023-05-07T02:39:52;4.85;;;3.40;;
58354;SDS011;44160;49.080;19.302;2023-05-07T02:42:18;7.15;;;3.13;;
58354;SDS011;44160;49.080;19.302;2023-05-07T02:44:45;4.32;;;3.15;;
58354;SDS011;44160;49.080;19.302;2023-05-07T02:47:11;5.85;;;3.72;;
58354;SDS011;44160;49.080;19.302;2023-05-07T02:49:38;3.60;;;2.83;;
58354;SDS011;44160;49.080;19.302;2023-05-07T02:52:04;3.90;;;2.95;;
58354;SDS011;44160;49.080;19.302;2023-05-07T02:54:30;6.65;;;2.80;;
58354;SDS011;44160;49.080;19.302;2023-05-07T02:56:56;5.30;;;3.60;;
58354;SDS011;44160;49.080;19.302;2023-05-07T02:59:23;5.18;;;3.45;;
58354;SDS011;44160;49.080;19.302;2023-05-07T03:01:51;8.15;;;4.15;;
58354;SDS011;44160;49.080;19.302;2023-05-07T03:04:17;6.35;;;3.90;;
58354;SDS011;44160;49.080;19.302;2023-05-07T03:06:43;5.55;;;3.95;;
58354;SDS011;44160;49.080;19.302;2023-05-07T03:09:09;6.05;;;3.80;;
58354;SDS011;44160;49.080;19.302;2023-05-07T03:11:35;7.00;;;3.85;;
58354;SDS011;44160;49.080;19.302;2023-05-07T03:14:01;5.85;;;3.72;;
58354;SDS011;44160;49.080;19.302;2023-05-07T03:16:27;7.03;;;4.15;;
58354;SDS011;44160;49.080;19.302;2023-05-07T03:18:53;5.25;;;3.88;;
58354;SDS011;44160;49.080;19.302;2023-05-07T03:21:19;5.68;;;3.90;;
58354;SDS011;44160;49.080;19.302;2023-05-07T03:23:46;6.35;;;4.57;;
58354;SDS011;44160;49.080;19.302;2023-05-07T03:26:12;5.35;;;4.03;;
58354;SDS011;44160;49.080;19.302;2023-05-07T03:28:38;5.95;;;5.18;;
58354;SDS011;44160;49.080;19.302;2023-05-07T03:31:04;7.68;;;5.82;;
58354;SDS011;44160;49.080;19.302;2023-05-07T03:33:32;6.45;;;5.80;;
58354;SDS011;44160;49.080;19.302;2023-05-07T03:35:58;4.78;;;3.88;;
58354;SDS011;44160;49.080;19.302;2023-05-07T03:38:24;4.95;;;4.00;;
58354;SDS011;44160;49.080;19.302;2023-05-07T03:40:50;11.38;;;6.13;;
58354;SDS011;44160;49.080;19.302;2023-05-07T03:43:16;6.78;;;6.00;;
58354;SDS011;44160;49.080;19.302;2023-05-07T03:45:42;11.27;;;10.27;;
58354;SDS011;44160;49.080;19.302;2023-05-07T03:48:08;10.93;;;9.57;;
58354;SDS011;44160;49.080;19.302;2023-05-07T03:50:34;14.52;;;11.45;;
58354;SDS011;44160;49.080;19.302;2023-05-07T03:53:00;10.55;;;9.55;;
58354;SDS011;44160;49.080;19.302;2023-05-07T03:55:26;8.57;;;7.78;;
58354;SDS011;44160;49.080;19.302;2023-05-07T03:57:53;7.82;;;7.03;;
58354;SDS011;44160;49.080;19.302;2023-05-07T04:00:20;10.52;;;7.53;;
58354;SDS011;44160;49.080;19.302;2023-05-07T04:02:46;8.80;;;6.93;;
58354;SDS011;44160;49.080;19.302;2023-05-07T04:05:12;7.32;;;6.00;;
58354;SDS011;44160;49.080;19.302;2023-05-07T04:07:40;6.70;;;5.40;;
58354;SDS011;44160;49.080;19.302;2023-05-07T04:10:06;7.10;;;4.97;;
58354;SDS011;44160;49.080;19.302;2023-05-07T04:12:32;9.77;;;5.90;;
58354;SDS011;44160;49.080;19.302;2023-05-07T04:14:59;7.32;;;5.95;;
58354;SDS011;44160;49.080;19.302;2023-05-07T04:17:25;13.23;;;8.50;;
58354;SDS011;44160;49.080;19.302;2023-05-07T04:19:51;10.70;;;8.40;;
58354;SDS011;44160;49.080;19.302;2023-05-07T04:22:17;11.07;;;9.93;;
58354;SDS011;44160;49.080;19.302;2023-05-07T04:24:43;11.07;;;7.57;;
58354;SDS011;44160;49.080;19.302;2023-05-07T04:27:09;10.20;;;6.75;;
58354;SDS011;44160;49.080;19.302;2023-05-07T04:29:35;8.00;;;6.65;;
58354;SDS011;44160;49.080;19.302;2023-05-07T04:32:01;10.00;;;6.88;;
58354;SDS011;44160;49.080;19.302;2023-05-07T04:34:27;9.80;;;6.22;;
58354;SDS011;44160;49.080;19.302;2023-05-07T04:36:53;9.68;;;6.43;;
58354;SDS011;44160;49.080;19.302;2023-05-07T04:39:19;9.95;;;6.22;;
58354;SDS011;44160;49.080;19.302;2023-05-07T04:41:45;9.95;;;6.05;;
58354;SDS011;44160;49.080;19.302;2023-05-07T04:44:11;7.57;;;5.72;;
58354;SDS011;44160;49.080;19.302;2023-05-07T04:46:37;8.70;;;5.70;;
58354;SDS011;44160;49.080;19.302;2023-05-07T04:49:03;14.90;;;5.68;;
58354;SDS011;44160;49.080;19.302;2023-05-07T04:51:30;8.57;;;6.32;;
58354;SDS011;44160;49.080;19.302;2023-05-07T04:53:59;8.88;;;6.57;;
58354;SDS011;44160;49.080;19.302;2023-05-07T04:56:27;7.50;;;5.93;;
58354;SDS011;44160;49.080;19.302;2023-05-07T04:58:53;6.93;;;5.43;;
58354;SDS011;44160;49.080;19.302;2023-05-07T05:01:19;8.55;;;5.97;;
58354;SDS011;44160;49.080;19.302;2023-05-07T05:03:45;7.18;;;5.70;;
58354;SDS011;44160;49.080;19.302;2023-05-07T05:06:11;9.18;;;6.40;;
58354;SDS011;44160;49.080;19.302;2023-05-07T05:08:37;8.55;;;5.57;;
58354;SDS011;44160;49.080;19.302;2023-05-07T05:11:03;7.68;;;5.72;;
58354;SDS011;44160;49.080;19.302;2023-05-07T05:13:29;7.53;;;5.85;;
58354;SDS011;44160;49.080;19.302;2023-05-07T05:15:55;8.00;;;6.05;;
58354;SDS011;44160;49.080;19.302;2023-05-07T05:18:22;13.02;;;5.93;;
58354;SDS011;44160;49.080;19.302;2023-05-07T05:20:51;7.45;;;6.15;;
58354;SDS011;44160;49.080;19.302;2023-05-07T05:23:17;11.05;;;7.15;;
58354;SDS011;44160;49.080;19.302;2023-05-07T05:25:43;8.32;;;6.28;;
58354;SDS011;44160;49.080;19.302;2023-05-07T05:28:09;9.25;;;6.60;;
58354;SDS011;44160;49.080;19.302;2023-05-07T05:30:35;10.00;;;7.03;;
58354;SDS011;44160;49.080;19.302;2023-05-07T05:33:01;10.23;;;6.97;;
58354;SDS011;44160;49.080;19.302;2023-05-07T05:35:27;10.77;;;7.47;;
58354;SDS011;44160;49.080;19.302;2023-05-07T05:37:53;11.23;;;8.20;;
58354;SDS011;44160;49.080;19.302;2023-05-07T05:40:19;12.43;;;7.75;;
58354;SDS011;44160;49.080;19.302;2023-05-07T05:42:45;10.45;;;7.82;;
58354;SDS011;44160;49.080;19.302;2023-05-07T05:45:14;15.40;;;9.18;;
58354;SDS011;44160;49.080;19.302;2023-05-07T05:47:40;12.65;;;9.52;;
58354;SDS011;44160;49.080;19.302;2023-05-07T05:50:06;13.45;;;9.35;;
58354;SDS011;44160;49.080;19.302;2023-05-07T05:52:33;11.43;;;8.65;;
58354;SDS011;44160;49.080;19.302;2023-05-07T05:54:59;11.48;;;8.57;;
58354;SDS011;44160;49.080;19.302;2023-05-07T05:57:27;11.85;;;7.78;;
58354;SDS011;44160;49.080;19.302;2023-05-07T05:59:53;10.90;;;7.07;;
58354;SDS011;44160;49.080;19.302;2023-05-07T06:02:19;8.95;;;6.60;;
58354;SDS011;44160;49.080;19.302;2023-05-07T06:04:45;8.93;;;6.07;;
58354;SDS011;44160;49.080;19.302;2023-05-07T06:07:11;7.15;;;5.43;;
58354;SDS011;44160;49.080;19.302;2023-05-07T06:09:38;7.50;;;5.65;;
58354;SDS011;44160;49.080;19.302;2023-05-07T06:12:04;6.60;;;5.43;;
58354;SDS011;44160;49.080;19.302;2023-05-07T06:14:30;7.90;;;5.15;;
58354;SDS011;44160;49.080;19.302;2023-05-07T06:16:56;7.43;;;5.22;;
58354;SDS011;44160;49.080;19.302;2023-05-07T06:19:23;6.53;;;4.80;;
58354;SDS011;44160;49.080;19.302;2023-05-07T06:21:51;5.05;;;4.30;;
58354;SDS011;44160;49.080;19.302;2023-05-07T06:24:17;6.85;;;4.72;;
58354;SDS011;44160;49.080;19.302;2023-05-07T06:26:43;6.40;;;5.20;;
58354;SDS011;44160;49.080;19.302;2023-05-07T06:29:09;6.90;;;5.32;;
58354;SDS011;44160;49.080;19.302;2023-05-07T06:31:35;8.07;;;5.78;;
58354;SDS011;44160;49.080;19.302;2023-05-07T06:34:01;8.93;;;5.68;;
58354;SDS011;44160;49.080;19.302;2023-05-07T06:36:28;7.10;;;5.53;;
58354;SDS011;44160;49.080;19.302;2023-05-07T06:38:54;7.97;;;5.57;;
58354;SDS011;44160;49.080;19.302;2023-05-07T06:41:20;6.10;;;4.72;;
58354;SDS011;44160;49.080;19.302;2023-05-07T06:43:46;5.60;;;4.82;;
58354;SDS011;44160;49.080;19.302;2023-05-07T06:46:12;6.10;;;4.78;;
58354;SDS011;44160;49.080;19.302;2023-05-07T06:48:38;7.00;;;5.30;;
58354;SDS011;44160;49.080;19.302;2023-05-07T06:51:07;6.78;;;5.30;;
58354;SDS011;44160;49.080;19.302;2023-05-07T06:53:37;6.75;;;4.63;;
58354;SDS011;44160;49.080;19.302;2023-05-07T06:56:03;5.60;;;4.47;;
58354;SDS011;44160;49.080;19.302;2023-05-07T06:58:29;5.07;;;4.10;;
58354;SDS011;44160;49.080;19.302;2023-05-07T07:00:55;4.78;;;4.00;;
58354;SDS011;44160;49.080;19.302;2023-05-07T07:03:21;5.13;;;3.85;;
58354;SDS011;44160;49.080;19.302;2023-05-07T07:05:50;5.53;;;3.92;;
58354;SDS011;44160;49.080;19.302;2023-05-07T07:08:17;4.65;;;4.13;;
58354;SDS011;44160;49.080;19.302;2023-05-07T07:10:43;5.43;;;3.97;;
58354;SDS011;44160;49.080;19.302;2023-05-07T07:13:09;5.30;;;3.83;;
58354;SDS011;44160;49.080;19.302;2023-05-07T07:15:37;6.47;;;4.07;;
58354;SDS011;44160;49.080;19.302;2023-05-07T07:18:07;4.95;;;4.05;;
58354;SDS011;44160;49.080;19.302;2023-05-07T07:20:35;6.22;;;3.75;;
58354;SDS011;44160;49.080;19.302;2023-05-07T07:23:01;6.18;;;3.80;;
58354;SDS011;44160;49.080;19.302;2023-05-07T07:25:27;4.60;;;3.70;;
58354;SDS011;44160;49.080;19.302;2023-05-07T07:27:53;4.68;;;3.70;;
58354;SDS011;44160;49.080;19.302;2023-05-07T07:30:19;5.35;;;4.15;;
58354;SDS011;44160;49.080;19.302;2023-05-07T07:32:45;5.25;;;4.18;;
58354;SDS011;44160;49.080;19.302;2023-05-07T07:35:11;4.78;;;3.97;;
58354;SDS011;44160;49.080;19.302;2023-05-07T07:37:37;4.55;;;3.83;;
58354;SDS011;44160;49.080;19.302;2023-05-07T07:40:04;5.63;;;3.80;;
58354;SDS011;44160;49.080;19.302;2023-05-07T07:42:30;4.40;;;3.40;;
58354;SDS011;44160;49.080;19.302;2023-05-07T07:44:56;5.32;;;3.85;;
58354;SDS011;44160;49.080;19.302;2023-05-07T07:47:22;6.47;;;4.40;;
58354;SDS011;44160;49.080;19.302;2023-05-07T07:49:48;5.53;;;4.13;;
58354;SDS011;44160;49.080;19.302;2023-05-07T07:52:14;4.85;;;3.75;;
58354;SDS011;44160;49.080;19.302;2023-05-07T07:54:46;5.57;;;4.03;;
58354;SDS011;44160;49.080;19.302;2023-05-07T07:57:13;9.40;;;3.75;;
58354;SDS011;44160;49.080;19.302;2023-05-07T07:59:42;5.28;;;3.72;;
58354;SDS011;44160;49.080;19.302;2023-05-07T08:02:10;4.78;;;3.78;;
58354;SDS011;44160;49.080;19.302;2023-05-07T08:04:37;4.53;;;3.50;;
58354;SDS011;44160;49.080;19.302;2023-05-07T08:07:03;4.20;;;3.42;;
58354;SDS011;44160;49.080;19.302;2023-05-07T08:09:29;7.45;;;3.55;;
58354;SDS011;44160;49.080;19.302;2023-05-07T08:11:58;4.13;;;3.05;;
58354;SDS011;44160;49.080;19.302;2023-05-07T08:14:24;4.85;;;3.10;;
58354;SDS011;44160;49.080;19.302;2023-05-07T08:16:50;4.13;;;3.00;;
58354;SDS011;44160;49.080;19.302;2023-05-07T08:19:16;4.35;;;2.60;;
58354;SDS011;44160;49.080;19.302;2023-05-07T08:21:42;4.45;;;3.13;;
58354;SDS011;44160;49.080;19.302;2023-05-07T08:24:08;3.75;;;3.10;;
58354;SDS011;44160;49.080;19.302;2023-05-07T08:26:35;3.85;;;2.92;;
58354;SDS011;44160;49.080;19.302;2023-05-07T08:29:23;3.00;;;2.70;;
58354;SDS011;44160;49.080;19.302;2023-05-07T08:32:01;4.40;;;2.75;;
58354;SDS011;44160;49.080;19.302;2023-05-07T08:34:27;3.92;;;3.00;;
58354;SDS011;44160;49.080;19.302;2023-05-07T08:36:53;4.05;;;3.20;;
58354;SDS011;44160;49.080;19.302;2023-05-07T08:39:20;3.72;;;2.83;;
58354;SDS011;44160;49.080;19.302;2023-05-07T08:41:46;4.10;;;3.10;;
58354;SDS011;44160;49.080;19.302;2023-05-07T08:44:14;3.47;;;2.35;;
58354;SDS011;44160;49.080;19.302;2023-05-07T08:46:40;3.30;;;2.72;;
58354;SDS011;44160;49.080;19.302;2023-05-07T08:49:08;3.83;;;2.67;;
58354;SDS011;44160;49.080;19.302;2023-05-07T08:51:35;3.80;;;2.95;;
58354;SDS011;44160;49.080;19.302;2023-05-07T08:54:01;5.63;;;2.95;;
58354;SDS011;44160;49.080;19.302;2023-05-07T08:56:27;3.17;;;2.30;;
58354;SDS011;44160;49.080;19.302;2023-05-07T08:58:53;4.10;;;1.88;;
58354;SDS011;44160;49.080;19.302;2023-05-07T09:01:24;3.40;;;2.67;;
58354;SDS011;44160;49.080;19.302;2023-05-07T09:03:51;4.00;;;2.92;;
58354;SDS011;44160;49.080;19.302;2023-05-07T09:06:17;2.63;;;2.33;;
58354;SDS011;44160;49.080;19.302;2023-05-07T09:08:53;4.40;;;2.75;;
58354;SDS011;44160;49.080;19.302;2023-05-07T09:11:20;3.88;;;2.95;;
58354;SDS011;44160;49.080;19.302;2023-05-07T09:13:47;3.65;;;2.80;;
58354;SDS011;44160;49.080;19.302;2023-05-07T09:16:13;5.85;;;2.85;;
58354;SDS011;44160;49.080;19.302;2023-05-07T09:18:42;5.50;;;3.42;;
58354;SDS011;44160;49.080;19.302;2023-05-07T09:21:15;3.70;;;2.35;;
58354;SDS011;44160;49.080;19.302;2023-05-07T09:23:41;3.55;;;2.80;;
58354;SDS011;44160;49.080;19.302;2023-05-07T09:26:07;2.90;;;2.47;;
58354;SDS011;44160;49.080;19.302;2023-05-07T09:28:40;3.40;;;2.40;;
58354;SDS011;44160;49.080;19.302;2023-05-07T09:31:07;2.97;;;2.33;;
58354;SDS011;44160;49.080;19.302;2023-05-07T09:33:54;2.45;;;2.08;;
58354;SDS011;44160;49.080;19.302;2023-05-07T09:36:20;2.95;;;2.40;;
58354;SDS011;44160;49.080;19.302;2023-05-07T09:38:47;3.10;;;2.40;;
58354;SDS011;44160;49.080;19.302;2023-05-07T09:41:13;2.58;;;2.17;;
58354;SDS011;44160;49.080;19.302;2023-05-07T09:43:39;3.42;;;2.67;;
58354;SDS011;44160;49.080;19.302;2023-05-07T09:46:13;4.55;;;3.13;;
58354;SDS011;44160;49.080;19.302;2023-05-07T09:48:41;3.70;;;2.17;;
58354;SDS011;44160;49.080;19.302;2023-05-07T09:53:52;3.60;;;2.20;;
58354;SDS011;44160;49.080;19.302;2023-05-07T09:56:18;2.67;;;2.05;;
58354;SDS011;44160;49.080;19.302;2023-05-07T09:58:45;4.25;;;2.42;;
58354;SDS011;44160;49.080;19.302;2023-05-07T10:01:11;4.97;;;2.60;;
58354;SDS011;44160;49.080;19.302;2023-05-07T10:03:39;3.95;;;2.17;;
58354;SDS011;44160;49.080;19.302;2023-05-07T10:06:06;2.65;;;2.03;;
58354;SDS011;44160;49.080;19.302;2023-05-07T10:08:32;2.35;;;1.95;;
58354;SDS011;44160;49.080;19.302;2023-05-07T10:10:59;2.40;;;2.03;;
58354;SDS011;44160;49.080;19.302;2023-05-07T10:13:25;2.97;;;2.40;;
58354;SDS011;44160;49.080;19.302;2023-05-07T10:15:51;2.28;;;2.08;;
58354;SDS011;44160;49.080;19.302;2023-05-07T10:18:18;2.90;;;1.95;;
58354;SDS011;44160;49.080;19.302;2023-05-07T10:20:47;3.15;;;1.95;;
58354;SDS011;44160;49.080;19.302;2023-05-07T10:23:14;3.00;;;2.28;;
58354;SDS011;44160;49.080;19.302;2023-05-07T10:25:48;4.05;;;2.20;;
58354;SDS011;44160;49.080;19.302;2023-05-07T10:28:17;3.08;;;2.25;;
58354;SDS011;44160;49.080;19.302;2023-05-07T10:33:14;2.97;;;2.28;;
58354;SDS011;44160;49.080;19.302;2023-05-07T10:35:44;2.58;;;2.10;;
58354;SDS011;44160;49.080;19.302;2023-05-07T10:38:13;3.08;;;2.22;;
58354;SDS011;44160;49.080;19.302;2023-05-07T10:40:40;3.83;;;2.13;;
58354;SDS011;44160;49.080;19.302;2023-05-07T10:43:06;2.92;;;1.85;;
58354;SDS011;44160;49.080;19.302;2023-05-07T10:45:32;3.15;;;2.25;;
58354;SDS011;44160;49.080;19.302;2023-05-07T10:50:34;2.97;;;2.38;;
58354;SDS011;44160;49.080;19.302;2023-05-07T10:55:46;5.07;;;2.58;;
58354;SDS011;44160;49.080;19.302;2023-05-07T11:00:50;5.68;;;2.63;;
58354;SDS011;44160;49.080;19.302;2023-05-07T11:03:17;3.05;;;2.35;;
58354;SDS011;44160;49.080;19.302;2023-05-07T11:05:47;3.08;;;2.28;;
58354;SDS011;44160;49.080;19.302;2023-05-07T11:08:14;6.32;;;2.50;;
58354;SDS011;44160;49.080;19.302;2023-05-07T11:10:52;4.00;;;2.80;;
58354;SDS011;44160;49.080;19.302;2023-05-07T11:13:40;3.22;;;2.47;;
58354;SDS011;44160;49.080;19.302;2023-05-07T11:16:05;3.47;;;2.67;;
58354;SDS011;44160;49.080;19.302;2023-05-07T11:18:48;3.55;;;2.78;;
58354;SDS011;44160;49.080;19.302;2023-05-07T11:24:00;4.22;;;2.80;;
58354;SDS011;44160;49.080;19.302;2023-05-07T11:26:27;4.50;;;2.95;;
58354;SDS011;44160;49.080;19.302;2023-05-07T11:28:56;4.05;;;2.72;;
58354;SDS011;44160;49.080;19.302;2023-05-07T11:31:26;3.38;;;2.80;;
58354;SDS011;44160;49.080;19.302;2023-05-07T11:36:19;3.67;;;3.13;;
58354;SDS011;44160;49.080;19.302;2023-05-07T11:38:46;4.15;;;2.67;;
58354;SDS011;44160;49.080;19.302;2023-05-07T11:41:12;3.58;;;2.97;;
58354;SDS011;44160;49.080;19.302;2023-05-07T11:43:39;3.65;;;2.67;;
58354;SDS011;44160;49.080;19.302;2023-05-07T11:46:19;3.58;;;3.03;;
58354;SDS011;44160;49.080;19.302;2023-05-07T11:48:45;4.18;;;3.15;;
58354;SDS011;44160;49.080;19.302;2023-05-07T11:51:11;4.32;;;3.10;;
58354;SDS011;44160;49.080;19.302;2023-05-07T11:53:39;3.47;;;3.15;;
58354;SDS011;44160;49.080;19.302;2023-05-07T11:56:09;4.03;;;3.10;;
58354;SDS011;44160;49.080;19.302;2023-05-07T11:58:35;6.75;;;3.58;;
58354;SDS011;44160;49.080;19.302;2023-05-07T12:01:01;4.63;;;3.28;;
58354;SDS011;44160;49.080;19.302;2023-05-07T12:03:27;3.90;;;3.50;;
58354;SDS011;44160;49.080;19.302;2023-05-07T12:05:55;5.20;;;3.10;;
58354;SDS011;44160;49.080;19.302;2023-05-07T12:08:21;4.43;;;3.20;;
58354;SDS011;44160;49.080;19.302;2023-05-07T12:10:50;4.28;;;2.95;;
58354;SDS011;44160;49.080;19.302;2023-05-07T12:13:17;4.63;;;2.70;;
58354;SDS011;44160;49.080;19.302;2023-05-07T12:15:44;4.55;;;3.03;;
58354;SDS011;44160;49.080;19.302;2023-05-07T12:18:11;4.07;;;2.85;;
58354;SDS011;44160;49.080;19.302;2023-05-07T12:20:37;3.42;;;2.80;;
58354;SDS011;44160;49.080;19.302;2023-05-07T12:23:03;3.85;;;2.90;;
58354;SDS011;44160;49.080;19.302;2023-05-07T12:25:30;2.97;;;2.60;;
58354;SDS011;44160;49.080;19.302;2023-05-07T12:27:56;3.33;;;2.58;;
58354;SDS011;44160;49.080;19.302;2023-05-07T12:30:24;4.03;;;2.65;;
58354;SDS011;44160;49.080;19.302;2023-05-07T12:32:53;3.67;;;2.47;;
58354;SDS011;44160;49.080;19.302;2023-05-07T12:35:29;4.65;;;2.80;;
58354;SDS011;44160;49.080;19.302;2023-05-07T12:37:56;3.30;;;2.80;;
58354;SDS011;44160;49.080;19.302;2023-05-07T12:40:24;2.72;;;2.42;;
58354;SDS011;44160;49.080;19.302;2023-05-07T12:42:52;4.00;;;2.53;;
58354;SDS011;44160;49.080;19.302;2023-05-07T12:45:20;3.30;;;2.53;;
58354;SDS011;44160;49.080;19.302;2023-05-07T12:47:46;3.92;;;2.50;;
58354;SDS011;44160;49.080;19.302;2023-05-07T12:50:13;3.67;;;2.72;;
58354;SDS011;44160;49.080;19.302;2023-05-07T12:52:40;3.30;;;2.50;;
58354;SDS011;44160;49.080;19.302;2023-05-07T12:55:06;3.53;;;2.80;;
58354;SDS011;44160;49.080;19.302;2023-05-07T12:57:39;3.47;;;2.45;;
58354;SDS011;44160;49.080;19.302;2023-05-07T13:00:06;2.90;;;2.30;;
58354;SDS011;44160;49.080;19.302;2023-05-07T13:02:33;3.88;;;2.75;;
58354;SDS011;44160;49.080;19.302;2023-05-07T13:04:59;2.78;;;2.40;;
58354;SDS011;44160;49.080;19.302;2023-05-07T13:07:25;2.83;;;2.10;;
58354;SDS011;44160;49.080;19.302;2023-05-07T13:09:51;3.03;;;2.05;;
58354;SDS011;44160;49.080;19.302;2023-05-07T13:12:17;3.08;;;2.08;;
58354;SDS011;44160;49.080;19.302;2023-05-07T13:14:43;4.22;;;2.50;;
58354;SDS011;44160;49.080;19.302;2023-05-07T13:17:10;2.55;;;2.10;;
58354;SDS011;44160;49.080;19.302;2023-05-07T13:19:36;2.42;;;1.90;;
58354;SDS011;44160;49.080;19.302;2023-05-07T13:22:02;2.45;;;2.10;;
58354;SDS011;44160;49.080;19.302;2023-05-07T13:24:28;2.70;;;1.92;;
58354;SDS011;44160;49.080;19.302;2023-05-07T13:26:55;3.58;;;2.20;;
58354;SDS011;44160;49.080;19.302;2023-05-07T13:29:21;2.22;;;2.03;;
58354;SDS011;44160;49.080;19.302;2023-05-07T13:32:00;4.80;;;2.00;;
58354;SDS011;44160;49.080;19.302;2023-05-07T13:34:31;2.72;;;1.70;;
58354;SDS011;44160;49.080;19.302;2023-05-07T13:36:57;4.30;;;2.20;;
58354;SDS011;44160;49.080;19.302;2023-05-07T13:39:23;2.47;;;1.75;;
58354;SDS011;44160;49.080;19.302;2023-05-07T13:41:50;2.17;;;1.90;;
58354;SDS011;44160;49.080;19.302;2023-05-07T13:44:16;1.92;;;1.67;;
58354;SDS011;44160;49.080;19.302;2023-05-07T13:46:42;2.33;;;1.80;;
58354;SDS011;44160;49.080;19.302;2023-05-07T13:49:08;3.58;;;2.03;;
58354;SDS011;44160;49.080;19.302;2023-05-07T13:51:36;2.05;;;1.70;;
58354;SDS011;44160;49.080;19.302;2023-05-07T13:54:02;2.20;;;1.83;;
58354;SDS011;44160;49.080;19.302;2023-05-07T13:56:28;2.72;;;1.92;;
58354;SDS011;44160;49.080;19.302;2023-05-07T13:58:56;2.97;;;1.85;;
58354;SDS011;44160;49.080;19.302;2023-05-07T14:01:22;1.80;;;1.55;;
58354;SDS011;44160;49.080;19.302;2023-05-07T14:03:51;2.30;;;2.08;;
58354;SDS011;44160;49.080;19.302;2023-05-07T14:06:17;3.55;;;1.90;;
58354;SDS011;44160;49.080;19.302;2023-05-07T14:08:46;2.47;;;1.92;;
58354;SDS011;44160;49.080;19.302;2023-05-07T14:11:12;2.53;;;1.70;;
58354;SDS011;44160;49.080;19.302;2023-05-07T14:13:38;2.33;;;1.83;;
58354;SDS011;44160;49.080;19.302;2023-05-07T14:16:05;4.95;;;2.05;;
58354;SDS011;44160;49.080;19.302;2023-05-07T14:18:32;2.00;;;1.77;;
58354;SDS011;44160;49.080;19.302;2023-05-07T14:20:59;2.40;;;2.00;;
58354;SDS011;44160;49.080;19.302;2023-05-07T14:23:25;2.67;;;2.00;;
58354;SDS011;44160;49.080;19.302;2023-05-07T14:25:54;2.75;;;2.00;;
58354;SDS011;44160;49.080;19.302;2023-05-07T14:28:22;2.38;;;1.90;;
58354;SDS011;44160;49.080;19.302;2023-05-07T14:30:48;3.38;;;1.98;;
58354;SDS011;44160;49.080;19.302;2023-05-07T14:33:14;2.38;;;2.00;;
58354;SDS011;44160;49.080;19.302;2023-05-07T14:35:40;1.65;;;1.50;;
58354;SDS011;44160;49.080;19.302;2023-05-07T14:38:09;2.20;;;1.70;;
58354;SDS011;44160;49.080;19.302;2023-05-07T14:40:35;2.08;;;1.42;;
58354;SDS011;44160;49.080;19.302;2023-05-07T14:43:04;2.03;;;1.50;;
58354;SDS011;44160;49.080;19.302;2023-05-07T14:45:30;3.63;;;1.98;;
58354;SDS011;44160;49.080;19.302;2023-05-07T14:47:56;2.95;;;2.00;;
58354;SDS011;44160;49.080;19.302;2023-05-07T14:50:34;2.25;;;1.58;;